Los Angeles, California
Current Conditions -  °F | °C
As of 5:47 AM on Saturday 20 Dec 2014 (Local Time) from KCQT Reporting Station
Clear Clear  
Wind Chill: 50°   Ceiling: Unl
Heat Index: 50°   Visibility: 9mi
Dew Point: 46°   Wind: 0mph
Humidity: 86%   Direction: NA
Pressure: 30.15"   Gusts: NA
Location:  34.05°N, 118.24°W
Report Text: KCQT 201347Z AUTO 00000KT 9SM CLR 10/08 A3015 RMK AO2 SLP207 T01000078
Loading
Personal Weather Stations






























Interactive Weather Map New forecast layout! Learn more

10-Day Weather Forecast

Advertisements
Track Severe Weather on mobile